createdAt,value
2023-02-11T00:00:39.222Z,6.56
2023-02-11T00:03:05.708Z,6.45
2023-02-11T00:05:32.185Z,6.71
2023-02-11T00:07:58.621Z,6.38
2023-02-11T00:10:27.624Z,6.19
2023-02-11T00:12:54.053Z,6.67
2023-02-11T00:15:21.234Z,6.45
2023-02-11T00:17:47.751Z,6.48
2023-02-11T00:20:14.386Z,6.96
2023-02-11T00:22:40.958Z,6.75
2023-02-11T00:25:07.689Z,7.15
2023-02-11T00:27:34.139Z,6.80
2023-02-11T00:30:02.172Z,6.61
2023-02-11T00:32:28.744Z,6.63
2023-02-11T00:34:55.444Z,6.49
2023-02-11T00:37:22.537Z,6.44
2023-02-11T00:39:50.090Z,6.75
2023-02-11T00:42:16.922Z,6.94
2023-02-11T00:44:43.360Z,6.82
2023-02-11T00:47:09.847Z,6.77
2023-02-11T00:49:37.018Z,6.99
2023-02-11T00:52:03.741Z,6.98
2023-02-11T00:54:30.155Z,7.21
2023-02-11T00:56:56.645Z,7.07
2023-02-11T00:59:23.039Z,7.93
2023-02-11T01:01:49.610Z,7.89
2023-02-11T01:04:16.257Z,7.82
2023-02-11T01:06:42.671Z,7.26
2023-02-11T01:09:09.217Z,7.55
2023-02-11T01:11:35.775Z,7.37
2023-02-11T01:14:02.568Z,7.63
2023-02-11T01:16:29.116Z,7.56
2023-02-11T01:18:55.805Z,7.51
2023-02-11T01:21:22.238Z,7.55
2023-02-11T01:23:48.664Z,7.77
2023-02-11T01:26:15.089Z,7.37
2023-02-11T01:28:41.594Z,7.18
2023-02-11T01:31:08.213Z,7.72
2023-02-11T01:33:34.770Z,7.90
2023-02-11T01:36:05.637Z,7.22
2023-02-11T01:38:33.007Z,7.56
2023-02-11T01:41:06.198Z,7.93
2023-02-11T01:43:36.378Z,7.83
2023-02-11T01:46:24.721Z,7.70
2023-02-11T01:48:56.021Z,7.91
2023-02-11T01:51:27.613Z,8.19
2023-02-11T01:54:14.118Z,8.36
2023-02-11T01:57:03.517Z,8.57
2023-02-11T01:59:34.837Z,8.08
2023-02-11T02:02:08.057Z,7.39
2023-02-11T02:04:42.334Z,8.01
2023-02-11T02:07:19.183Z,8.70
2023-02-11T02:09:52.521Z,7.86
2023-02-11T02:12:18.980Z,7.80
2023-02-11T02:14:45.440Z,8.23
2023-02-11T02:17:29.082Z,7.74
2023-02-11T02:20:24.402Z,8.05
2023-02-11T02:23:32.450Z,7.90
2023-02-11T02:26:08.066Z,7.93
2023-02-11T02:28:34.483Z,7.72
2023-02-11T02:31:25.515Z,8.41
2023-02-11T02:34:06.723Z,8.36
2023-02-11T02:36:55.949Z,7.76
2023-02-11T02:39:28.939Z,8.04
2023-02-11T02:41:56.991Z,7.81
2023-02-11T02:44:23.978Z,8.59
2023-02-11T02:46:50.497Z,8.37
2023-02-11T02:49:17.486Z,7.67
2023-02-11T02:51:58.758Z,8.16
2023-02-11T02:54:52.583Z,8.08
2023-02-11T02:57:28.667Z,8.15
2023-02-11T03:00:11.158Z,8.87
2023-02-11T03:02:47.807Z,8.33
2023-02-11T03:05:21.741Z,8.56
2023-02-11T03:07:57.236Z,8.26
2023-02-11T03:10:29.083Z,8.10
2023-02-11T03:12:57.052Z,7.83
2023-02-11T03:15:26.941Z,8.31
2023-02-11T03:17:56.200Z,8.09
2023-02-11T03:20:23.247Z,8.19
2023-02-11T03:22:58.664Z,7.85
2023-02-11T03:25:32.336Z,7.95
2023-02-11T03:28:27.073Z,7.95
2023-02-11T03:31:02.449Z,8.58
2023-02-11T03:33:37.603Z,8.05
2023-02-11T03:36:09.283Z,8.62
2023-02-11T03:38:39.598Z,8.43
2023-02-11T03:41:07.995Z,9.06
2023-02-11T03:43:40.874Z,8.50
2023-02-11T03:46:09.620Z,8.28
2023-02-11T03:48:44.354Z,8.50
2023-02-11T03:51:13.756Z,8.44
2023-02-11T03:53:44.484Z,8.56
2023-02-11T03:56:16.877Z,8.63
2023-02-11T03:58:46.486Z,9.24
2023-02-11T04:01:13.091Z,8.27
2023-02-11T04:03:39.598Z,8.69
2023-02-11T04:06:06.511Z,8.47
2023-02-11T04:08:33.262Z,8.75
2023-02-11T04:10:59.706Z,8.75
2023-02-11T04:13:26.228Z,8.19
2023-02-11T04:15:52.876Z,8.84
2023-02-11T04:18:19.479Z,8.58
2023-02-11T04:20:45.941Z,8.16
2023-02-11T04:23:12.375Z,8.50
2023-02-11T04:25:38.779Z,8.95
2023-02-11T04:28:05.321Z,8.93
2023-02-11T04:30:31.772Z,9.25
2023-02-11T04:32:58.856Z,8.26
2023-02-11T04:35:25.613Z,8.48
2023-02-11T04:37:52.033Z,8.77
2023-02-11T04:40:18.599Z,8.47
2023-02-11T04:42:45.026Z,8.51
2023-02-11T04:45:11.452Z,8.36
2023-02-11T04:47:38.031Z,8.23
2023-02-11T04:50:05.215Z,8.24
2023-02-11T04:52:31.670Z,8.67
2023-02-11T04:54:58.043Z,8.77
2023-02-11T04:57:24.531Z,8.54
2023-02-11T04:59:50.960Z,8.51
2023-02-11T05:02:17.414Z,8.62
2023-02-11T05:04:43.843Z,8.58
2023-02-11T05:07:10.247Z,8.14
2023-02-11T05:09:36.864Z,8.10
2023-02-11T05:12:03.438Z,7.79
2023-02-11T05:14:29.906Z,7.92
2023-02-11T05:16:56.368Z,8.86
2023-02-11T05:19:22.839Z,8.52
2023-02-11T05:22:01.757Z,8.37
2023-02-11T05:24:29.852Z,8.02
2023-02-11T05:26:56.273Z,8.04
2023-02-11T05:29:22.697Z,8.26
2023-02-11T05:31:49.165Z,7.87
2023-02-11T05:34:15.586Z,8.55
2023-02-11T05:36:42.022Z,8.49
2023-02-11T05:39:08.454Z,8.62
2023-02-11T05:41:35.013Z,8.42
2023-02-11T05:44:01.436Z,8.29
2023-02-11T05:46:27.928Z,8.60
2023-02-11T05:48:56.535Z,8.11
2023-02-11T05:51:25.202Z,8.35
2023-02-11T05:53:51.677Z,8.34
2023-02-11T05:56:18.104Z,8.57
2023-02-11T05:58:44.554Z,8.90
2023-02-11T06:01:10.981Z,8.51
2023-02-11T06:03:37.600Z,9.06
2023-02-11T06:06:04.387Z,8.67
2023-02-11T06:08:30.819Z,8.60
2023-02-11T06:10:57.244Z,8.66
2023-02-11T06:13:23.677Z,8.50
2023-02-11T06:15:57.804Z,8.52
2023-02-11T06:18:24.331Z,8.08
2023-02-11T06:20:50.748Z,8.54
2023-02-11T06:23:17.169Z,8.29
2023-02-11T06:25:43.564Z,8.81
2023-02-11T06:28:10.705Z,8.08
2023-02-11T06:30:38.168Z,7.83
2023-02-11T06:33:04.873Z,8.08
2023-02-11T06:35:33.365Z,9.10
2023-02-11T06:37:59.776Z,8.27
2023-02-11T06:40:26.234Z,8.35
2023-02-11T06:42:53.165Z,8.09
2023-02-11T06:45:20.598Z,7.82
2023-02-11T06:47:48.084Z,8.88
2023-02-11T06:50:14.810Z,8.47
2023-02-11T06:52:41.646Z,8.07
2023-02-11T06:55:08.290Z,8.71
2023-02-11T06:57:34.761Z,8.60
2023-02-11T07:00:01.179Z,9.29
2023-02-11T07:02:27.811Z,8.85
2023-02-11T07:04:54.223Z,8.70
2023-02-11T07:07:20.653Z,8.61
2023-02-11T07:09:47.089Z,8.85
2023-02-11T07:12:13.501Z,8.91
2023-02-11T07:14:40.326Z,9.49
2023-02-11T07:17:06.842Z,8.96
2023-02-11T07:19:33.273Z,9.20
2023-02-11T07:21:59.798Z,9.07
2023-02-11T07:24:26.348Z,8.93
2023-02-11T07:26:54.083Z,8.88
2023-02-11T07:29:20.505Z,9.22
2023-02-11T07:31:47.058Z,8.57
2023-02-11T07:34:13.615Z,8.90
2023-02-11T07:36:40.407Z,8.81
2023-02-11T07:39:06.802Z,8.43
2023-02-11T07:41:37.771Z,8.82
2023-02-11T07:44:04.850Z,8.83
2023-02-11T07:46:31.608Z,8.75
2023-02-11T07:48:58.277Z,8.71
2023-02-11T07:51:27.426Z,8.49
2023-02-11T07:53:55.362Z,8.65
2023-02-11T07:56:23.009Z,8.24
2023-02-11T07:58:49.928Z,8.62
2023-02-11T08:01:34.383Z,8.76
2023-02-11T08:04:02.555Z,8.89
2023-02-11T08:06:31.852Z,8.95
2023-02-11T08:08:58.795Z,9.55
2023-02-11T08:11:27.528Z,8.79
2023-02-11T08:13:55.969Z,8.70
2023-02-11T08:16:22.385Z,9.12
2023-02-11T08:18:50.268Z,9.17
2023-02-11T08:21:17.175Z,9.07
2023-02-11T08:23:44.676Z,9.20
2023-02-11T08:26:18.083Z,9.11
2023-02-11T08:28:45.895Z,8.52
2023-02-11T08:31:24.607Z,8.76
2023-02-11T08:33:53.225Z,9.02
2023-02-11T08:36:25.638Z,9.33
2023-02-11T08:38:58.694Z,9.31
2023-02-11T08:41:33.608Z,8.57
2023-02-11T08:44:00.107Z,8.59
2023-02-11T08:46:27.271Z,8.94
2023-02-11T08:48:53.817Z,9.06
2023-02-11T08:51:23.364Z,9.22
2023-02-11T08:53:51.394Z,9.28
2023-02-11T08:56:19.811Z,9.14
2023-02-11T08:58:47.079Z,9.37
2023-02-11T09:01:22.880Z,8.70
2023-02-11T09:03:49.955Z,8.85
2023-02-11T09:06:18.525Z,9.38
2023-02-11T09:08:47.488Z,9.12
2023-02-11T09:11:13.967Z,9.58
2023-02-11T09:13:42.943Z,8.86
2023-02-11T09:16:17.038Z,9.05
2023-02-11T09:18:44.395Z,8.61
2023-02-11T09:21:10.847Z,9.40
2023-02-11T09:23:37.401Z,8.62
2023-02-11T09:26:09.576Z,9.33
2023-02-11T09:28:36.268Z,9.28
2023-02-11T09:31:07.098Z,9.11
2023-02-11T09:33:34.109Z,9.42
2023-02-11T09:36:04.720Z,9.10
2023-02-11T09:38:31.534Z,8.69
2023-02-11T09:40:58.534Z,9.47
2023-02-11T09:43:39.299Z,8.94
2023-02-11T09:46:06.128Z,9.12
2023-02-11T09:48:39.973Z,8.95
2023-02-11T09:51:12.925Z,8.81
2023-02-11T09:53:42.365Z,8.60
2023-02-11T09:56:15.151Z,8.81
2023-02-11T09:58:44.432Z,9.32
2023-02-11T10:01:39.991Z,8.82
2023-02-11T10:04:50.796Z,9.17
2023-02-11T10:07:43.363Z,8.62
2023-02-11T10:10:37.663Z,9.37
2023-02-11T10:13:22.159Z,8.82
2023-02-11T10:16:21.261Z,9.05
2023-02-11T10:19:08.204Z,9.16
2023-02-11T10:21:47.724Z,9.33
2023-02-11T10:24:16.290Z,9.49
2023-02-11T10:26:43.997Z,9.10
2023-02-11T10:29:35.403Z,9.12
2023-02-11T10:32:06.990Z,9.54
2023-02-11T10:34:33.940Z,9.07
2023-02-11T10:37:00.477Z,8.86
2023-02-11T10:39:27.637Z,9.45
2023-02-11T10:41:59.219Z,9.48
2023-02-11T10:44:46.678Z,9.17
2023-02-11T10:47:20.636Z,8.88
2023-02-11T10:49:47.434Z,8.83
2023-02-11T10:52:25.618Z,9.11
2023-02-11T10:54:57.900Z,9.25
2023-02-11T10:57:28.153Z,9.09
2023-02-11T11:00:02.638Z,9.31
2023-02-11T11:02:35.965Z,8.90
2023-02-11T11:05:16.362Z,9.12
2023-02-11T11:07:53.805Z,9.49
2023-02-11T11:10:43.621Z,9.24
2023-02-11T11:13:40.939Z,9.20
2023-02-11T11:16:13.643Z,9.52
2023-02-11T11:18:42.254Z,9.96
2023-02-11T11:21:24.115Z,9.35
2023-02-11T11:23:55.018Z,9.33
2023-02-11T11:26:22.223Z,9.27
2023-02-11T11:29:06.975Z,9.19
2023-02-11T11:31:45.096Z,9.64
2023-02-11T11:34:23.707Z,9.75
2023-02-11T11:36:50.596Z,9.56
2023-02-11T11:39:25.013Z,9.17
2023-02-11T11:41:54.243Z,9.81
2023-02-11T11:44:35.118Z,9.37
2023-02-11T11:47:25.258Z,9.40
2023-02-11T11:50:05.832Z,9.05
2023-02-11T11:52:32.222Z,9.72
2023-02-11T11:55:10.920Z,10.06
2023-02-11T11:57:39.380Z,9.75
2023-02-11T12:00:15.399Z,10.21
2023-02-11T12:02:50.820Z,9.81
2023-02-11T12:05:23.092Z,9.47
2023-02-11T12:08:09.348Z,9.81
2023-02-11T12:10:52.226Z,9.20
2023-02-11T12:13:18.914Z,9.82
2023-02-11T12:15:45.442Z,10.32
2023-02-11T12:18:14.571Z,10.37
2023-02-11T12:20:59.939Z,9.98
2023-02-11T12:23:52.583Z,9.65
2023-02-11T12:26:24.278Z,10.34
2023-02-11T12:29:14.027Z,9.88
2023-02-11T12:32:05.003Z,10.31
2023-02-11T12:34:54.287Z,10.48
2023-02-11T12:37:41.811Z,9.90
2023-02-11T12:40:20.199Z,10.03
2023-02-11T12:43:12.035Z,9.38
2023-02-11T12:45:48.340Z,10.24
2023-02-11T12:48:40.754Z,9.71
2023-02-11T12:51:16.799Z,9.70
2023-02-11T12:53:46.080Z,9.45
2023-02-11T12:56:26.742Z,9.96
2023-02-11T12:58:57.382Z,9.90
2023-02-11T13:01:29.254Z,10.04
2023-02-11T13:04:13.612Z,9.39
2023-02-11T13:06:55.481Z,10.12
2023-02-11T13:09:54.824Z,9.99
2023-02-11T13:12:40.237Z,10.19
2023-02-11T13:15:12.820Z,9.89
2023-02-11T13:17:56.380Z,10.20
2023-02-11T13:20:31.993Z,10.15
2023-02-11T13:23:09.598Z,10.32
2023-02-11T13:25:43.046Z,10.07
2023-02-11T13:28:23.216Z,10.23
2023-02-11T13:30:57.696Z,9.68
2023-02-11T13:33:35.465Z,10.25
2023-02-11T13:36:04.451Z,10.42
2023-02-11T13:38:32.815Z,10.84
2023-02-11T13:41:23.474Z,9.89
2023-02-11T13:44:08.740Z,10.12
2023-02-11T13:46:57.115Z,10.40
2023-02-11T13:49:35.153Z,11.16
2023-02-11T13:52:05.788Z,10.32
2023-02-11T13:54:39.432Z,10.28
2023-02-11T13:57:20.801Z,10.47
2023-02-11T13:59:55.495Z,10.47
2023-02-11T14:02:49.759Z,10.51
2023-02-11T14:05:42.526Z,9.49
2023-02-11T14:08:30.387Z,10.59
2023-02-11T14:10:56.753Z,10.54
2023-02-11T14:13:30.722Z,11.03
2023-02-11T14:16:36.947Z,10.38
2023-02-11T14:19:06.241Z,10.95
2023-02-11T14:21:41.218Z,10.31
2023-02-11T14:24:10.732Z,10.91
2023-02-11T14:26:49.316Z,10.39
2023-02-11T14:29:45.868Z,10.20
2023-02-11T14:32:22.528Z,10.58
2023-02-11T14:35:10.438Z,10.00
2023-02-11T14:37:51.041Z,10.53
2023-02-11T14:40:27.184Z,10.04
2023-02-11T14:42:55.175Z,10.17
2023-02-11T14:45:26.270Z,10.39
2023-02-11T14:48:03.572Z,10.37
2023-02-11T14:50:52.058Z,10.69
2023-02-11T14:53:22.496Z,10.54
2023-02-11T14:55:54.988Z,9.90
2023-02-11T14:58:29.877Z,9.97
2023-02-11T15:01:09.066Z,9.70
2023-02-11T15:03:47.830Z,10.47
2023-02-11T15:06:21.186Z,9.72
2023-02-11T15:08:53.334Z,10.02
2023-02-11T15:11:22.323Z,10.38
2023-02-11T15:13:50.271Z,10.75
2023-02-11T15:16:21.647Z,10.13
2023-02-11T15:18:55.154Z,10.94
2023-02-11T15:21:29.987Z,10.30
2023-02-11T15:24:06.333Z,10.17
2023-02-11T15:26:33.388Z,10.21
2023-02-11T15:29:00.106Z,10.04
2023-02-11T15:31:28.126Z,10.58
2023-02-11T15:33:54.745Z,10.32
2023-02-11T15:36:28.508Z,10.20
2023-02-11T15:39:18.749Z,10.31
2023-02-11T15:41:45.658Z,9.79
2023-02-11T15:44:28.862Z,10.61
2023-02-11T15:46:55.349Z,9.65
2023-02-11T15:49:23.220Z,10.45
2023-02-11T15:51:50.609Z,10.12
2023-02-11T15:54:23.908Z,10.15
2023-02-11T15:56:58.894Z,10.25
2023-02-11T15:59:38.197Z,10.28
2023-02-11T16:02:45.470Z,9.98
2023-02-11T16:05:36.259Z,10.07
2023-02-11T16:08:24.503Z,10.82
2023-02-11T16:10:59.015Z,10.55
2023-02-11T16:13:28.242Z,10.91
2023-02-11T16:15:58.356Z,9.51
2023-02-11T16:18:38.156Z,9.78
2023-02-11T16:21:07.736Z,10.86
2023-02-11T16:23:42.186Z,10.14
2023-02-11T16:26:26.767Z,10.63
2023-02-11T16:28:53.725Z,9.88
2023-02-11T16:31:20.319Z,10.39
2023-02-11T16:33:46.814Z,10.24
2023-02-11T16:36:17.021Z,10.12
2023-02-11T16:38:43.438Z,10.15
2023-02-11T16:41:12.679Z,9.75
2023-02-11T16:43:40.195Z,10.32
2023-02-11T16:46:06.750Z,10.72
2023-02-11T16:48:33.595Z,10.52
2023-02-11T16:51:00.021Z,10.20
2023-02-11T16:53:26.544Z,10.30
2023-02-11T16:55:54.338Z,10.18
2023-02-11T16:58:20.811Z,10.55
2023-02-11T17:00:48.736Z,10.47
2023-02-11T17:03:22.977Z,10.43
2023-02-11T17:05:57.870Z,10.00
2023-02-11T17:08:24.412Z,10.41
2023-02-11T17:10:51.139Z,10.56
2023-02-11T17:13:17.754Z,10.85
2023-02-11T17:15:44.180Z,10.10
2023-02-11T17:18:14.228Z,10.54
2023-02-11T17:20:41.601Z,10.38
2023-02-11T17:23:08.224Z,10.06
2023-02-11T17:25:37.167Z,10.59
2023-02-11T17:28:08.112Z,10.66
2023-02-11T17:30:34.771Z,10.75
2023-02-11T17:33:01.372Z,10.92
2023-02-11T17:35:27.762Z,10.76
2023-02-11T17:37:54.139Z,10.70
2023-02-11T17:40:20.700Z,10.80
2023-02-11T17:42:47.094Z,11.26
2023-02-11T17:45:13.804Z,10.91
2023-02-11T17:47:40.356Z,10.43
2023-02-11T17:50:07.953Z,10.41
2023-02-11T17:52:34.671Z,10.66
2023-02-11T17:55:01.099Z,11.20
2023-02-11T17:57:27.603Z,11.05
2023-02-11T17:59:54.097Z,10.66
2023-02-11T18:02:20.622Z,10.75
2023-02-11T18:04:47.093Z,10.74
2023-02-11T18:07:13.601Z,10.58
2023-02-11T18:09:40.925Z,10.43
2023-02-11T18:12:08.044Z,10.75
2023-02-11T18:14:34.629Z,10.92
2023-02-11T18:17:01.194Z,11.11
2023-02-11T18:19:30.557Z,11.08
2023-02-11T18:22:00.563Z,11.26
2023-02-11T18:24:27.415Z,10.53
2023-02-11T18:26:53.866Z,10.78
2023-02-11T18:29:20.339Z,11.48
2023-02-11T18:31:46.869Z,10.63
2023-02-11T18:34:13.457Z,10.54
2023-02-11T18:36:39.894Z,10.54
2023-02-11T18:39:06.381Z,10.44
2023-02-11T18:41:32.971Z,11.01
2023-02-11T18:44:02.682Z,11.15
2023-02-11T18:46:29.704Z,10.10
2023-02-11T18:48:56.445Z,10.59
2023-02-11T18:51:23.146Z,10.87
2023-02-11T18:53:49.627Z,10.83
2023-02-11T18:56:19.112Z,10.61
2023-02-11T18:58:45.934Z,10.06
2023-02-11T19:01:17.963Z,11.04
2023-02-11T19:03:45.181Z,10.30
2023-02-11T19:06:17.467Z,10.91
2023-02-11T19:08:43.998Z,10.66
2023-02-11T19:11:10.688Z,10.17
2023-02-11T19:13:38.103Z,10.80
2023-02-11T19:16:07.357Z,11.22
2023-02-11T19:18:35.589Z,11.04
2023-02-11T19:21:12.131Z,10.65
2023-02-11T19:23:38.856Z,10.82
2023-02-11T19:26:06.330Z,11.72
2023-02-11T19:28:34.122Z,10.77
2023-02-11T19:31:09.752Z,11.07
2023-02-11T19:33:36.802Z,10.04
2023-02-11T19:36:05.921Z,10.66
2023-02-11T19:38:32.592Z,10.52
2023-02-11T19:40:59.072Z,10.25
2023-02-11T19:43:25.794Z,9.74
2023-02-11T19:45:56.657Z,10.00
2023-02-11T19:48:26.293Z,11.33
2023-02-11T19:50:52.886Z,10.28
2023-02-11T19:53:19.570Z,10.42
2023-02-11T19:55:46.193Z,9.79
2023-02-11T19:58:13.361Z,9.92
2023-02-11T20:00:39.970Z,10.54
2023-02-11T20:03:06.641Z,10.33
2023-02-11T20:05:33.214Z,10.26
2023-02-11T20:07:59.730Z,11.15
2023-02-11T20:10:26.723Z,10.54
2023-02-11T20:12:53.166Z,9.90
2023-02-11T20:15:19.558Z,10.09
2023-02-11T20:17:46.013Z,10.56
2023-02-11T20:20:12.877Z,9.99
2023-02-11T20:22:39.290Z,10.36
2023-02-11T20:25:06.284Z,10.56
2023-02-11T20:27:33.320Z,10.52
2023-02-11T20:29:59.727Z,10.70
2023-02-11T20:32:26.170Z,10.25
2023-02-11T20:34:52.657Z,10.40
2023-02-11T20:37:19.108Z,9.96
2023-02-11T20:39:45.522Z,10.27
2023-02-11T20:42:12.158Z,10.30
2023-02-11T20:44:38.715Z,10.66
2023-02-11T20:47:05.240Z,11.51
2023-02-11T20:49:32.104Z,10.33
2023-02-11T20:51:58.522Z,10.76
2023-02-11T20:54:25.828Z,10.00
2023-02-11T20:56:55.291Z,11.03
2023-02-11T20:59:22.576Z,10.32
2023-02-11T21:01:53.522Z,10.07
2023-02-11T21:04:23.680Z,10.20
2023-02-11T21:06:53.805Z,10.02
2023-02-11T21:09:23.639Z,10.34
2023-02-11T21:11:51.594Z,10.49
2023-02-11T21:14:19.864Z,10.52
2023-02-11T21:16:47.173Z,10.68
2023-02-11T21:19:13.638Z,10.25
2023-02-11T21:21:40.196Z,10.48
2023-02-11T21:24:07.157Z,10.19
2023-02-11T21:26:35.387Z,10.96
2023-02-11T21:29:04.005Z,10.78
2023-02-11T21:31:32.413Z,10.75
2023-02-11T21:33:59.547Z,10.20
2023-02-11T21:36:28.832Z,10.25
2023-02-11T21:38:56.065Z,10.40
2023-02-11T21:41:22.897Z,10.07
2023-02-11T21:43:50.453Z,10.27
2023-02-11T21:46:17.647Z,10.65
2023-02-11T21:48:44.169Z,10.41
2023-02-11T21:51:16.417Z,10.37
2023-02-11T21:53:43.180Z,10.18
2023-02-11T21:56:13.298Z,10.14
2023-02-11T21:58:40.035Z,10.68
2023-02-11T22:01:18.794Z,10.27
2023-02-11T22:03:46.598Z,9.92
2023-02-11T22:06:18.840Z,10.43
2023-02-11T22:08:45.291Z,10.35
2023-02-11T22:11:12.518Z,10.24
2023-02-11T22:13:39.894Z,10.16
2023-02-11T22:16:09.761Z,10.27
2023-02-11T22:18:36.865Z,10.38
2023-02-11T22:21:06.578Z,10.39
2023-02-11T22:23:33.837Z,10.66
2023-02-11T22:26:08.517Z,10.55
2023-02-11T22:28:36.991Z,9.85
2023-02-11T22:31:03.654Z,10.87
2023-02-11T22:33:30.641Z,10.29
2023-02-11T22:36:02.197Z,10.08
2023-02-11T22:38:29.346Z,9.76
2023-02-11T22:40:55.774Z,10.15
2023-02-11T22:43:22.264Z,10.47
2023-02-11T22:45:49.074Z,9.76
2023-02-11T22:48:15.742Z,9.95
2023-02-11T22:50:42.229Z,10.53
2023-02-11T22:53:09.171Z,10.17
2023-02-11T22:55:40.051Z,9.97
2023-02-11T22:58:06.538Z,9.77
2023-02-11T23:00:38.239Z,9.85
2023-02-11T23:03:06.303Z,9.92
2023-02-11T23:05:38.242Z,9.96
2023-02-11T23:08:05.221Z,10.45
2023-02-11T23:10:31.760Z,10.09
2023-02-11T23:12:58.214Z,10.42
2023-02-11T23:15:24.656Z,9.76
2023-02-11T23:17:51.060Z,9.83
2023-02-11T23:20:17.524Z,10.22
2023-02-11T23:22:43.910Z,9.95
2023-02-11T23:25:10.600Z,10.40
2023-02-11T23:27:37.038Z,10.23
2023-02-11T23:30:04.555Z,10.29
2023-02-11T23:32:31.126Z,9.97
2023-02-11T23:34:57.907Z,10.00
2023-02-11T23:37:24.319Z,9.80
2023-02-11T23:39:50.771Z,10.70
2023-02-11T23:42:17.228Z,10.20
2023-02-11T23:44:43.618Z,10.52
2023-02-11T23:47:10.031Z,10.04
2023-02-11T23:49:36.483Z,10.31
2023-02-11T23:52:02.991Z,9.82
2023-02-11T23:54:29.443Z,10.48
2023-02-11T23:56:55.855Z,10.31
2023-02-11T23:59:22.281Z,10.30
